Time;durP1;ratioP1;P1;durP2;ratioP2;P2;SDS_P1;SDS_P2;PMS_P1;PMS_P2;Temp;Humidity;BMP_temperature;BMP_pressure;BME280_temperature;BME280_humidity;BME280_pressure;Samples;Min_cycle;Max_cycle;Signal;HPM_P1;HPM_P2
2022/11/12 00:01:24;;;;;;;4.80;2.97;;;19.60;76.80;;;;;;10523495;28;20106;-33
2022/11/12 00:06:27;;;;;;;12.30;8.95;;;19.50;76.90;;;;;;10527065;28;20048;-28
2022/11/12 00:11:29;;;;;;;7.25;3.80;;;19.10;77.50;;;;;;10523001;28;20587;-29
2022/11/12 00:16:31;;;;;;;5.63;3.38;;;19.20;78.80;;;;;;10526809;28;20048;-29
2022/11/12 00:21:34;;;;;;;5.90;3.22;;;19.00;81.30;;;;;;10530088;28;20508;-29
2022/11/12 00:26:36;;;;;;;3.75;2.90;;;19.30;78.20;;;;;;10521762;28;20476;-31
2022/11/12 00:31:38;;;;;;;4.07;3.00;;;19.40;77.60;;;;;;10530410;28;20056;-32
2022/11/12 00:36:41;;;;;;;3.72;3.00;;;19.40;77.40;;;;;;10529336;28;20087;-37
2022/11/12 00:41:43;;;;;;;3.55;2.88;;;19.40;77.30;;;;;;10521858;28;20098;-30
2022/11/12 00:46:45;;;;;;;5.72;3.28;;;19.40;77.10;;;;;;10516881;28;20067;-35
2022/11/12 00:51:48;;;;;;;4.78;3.15;;;19.50;77.00;;;;;;10520070;28;20044;-28
2022/11/12 00:56:50;;;;;;;4.65;3.05;;;19.40;77.10;;;;;;10522219;28;20610;-30
2022/11/12 01:01:52;;;;;;;5.10;3.60;;;19.40;77.10;;;;;;10520054;28;20485;-28
2022/11/12 01:06:55;;;;;;;6.75;3.60;;;19.40;77.30;;;;;;10522749;28;20043;-28
2022/11/12 01:11:57;;;;;;;5.57;4.35;;;19.50;77.00;;;;;;10537413;28;20078;-28
2022/11/12 01:16:59;;;;;;;6.60;4.70;;;19.40;77.40;;;;;;10532212;28;20149;-31
2022/11/12 01:22:02;;;;;;;5.07;3.87;;;19.50;77.00;;;;;;10520907;28;20098;-32
2022/11/12 01:27:04;;;;;;;5.72;4.10;;;19.40;77.00;;;;;;10528570;28;20998;-31
2022/11/12 01:32:06;;;;;;;6.80;4.28;;;19.40;76.90;;;;;;10517739;28;20056;-30
2022/11/12 01:37:09;;;;;;;8.13;6.35;;;19.40;77.20;;;;;;10528496;28;20093;-28
2022/11/12 01:42:12;;;;;;;5.35;4.15;;;19.40;77.10;;;;;;10527627;28;20040;-28
2022/11/12 01:47:20;;;;;;;5.35;4.47;;;19.30;77.30;;;;;;10529388;28;20048;-28
2022/11/12 01:52:28;;;;;;;4.70;4.25;;;19.30;77.40;;;;;;10523926;28;20533;-30
2022/11/12 01:57:34;;;;;;;6.18;4.78;;;19.30;77.20;;;;;;10526922;28;20142;-29
2022/11/12 02:02:37;;;;;;;6.78;5.07;;;19.40;77.20;;;;;;10510977;28;20040;-29
2022/11/12 02:07:42;;;;;;;6.45;4.82;;;19.30;77.40;;;;;;10523208;28;20052;-27
2022/11/12 02:18:05;;;;;;;6.40;5.05;;;19.30;77.50;;;;;;10517880;28;20056;-29
2022/11/12 02:23:08;;;;;;;;;;;19.30;77.10;;;;;;10532386;28;20122;-28
2022/11/12 02:28:10;;;;;;;7.28;5.07;;;19.30;77.30;;;;;;10509497;28;19942;-29
2022/11/12 02:33:12;;;;;;;7.93;5.47;;;19.30;77.20;;;;;;10521431;28;20725;-30
2022/11/12 02:38:15;;;;;;;5.72;5.10;;;19.30;76.80;;;;;;10515345;28;20131;-30
2022/11/12 02:43:17;;;;;;;7.35;5.63;;;19.30;77.10;;;;;;10532027;28;20044;-29
2022/11/12 02:48:19;;;;;;;7.18;5.95;;;19.30;77.10;;;;;;10520030;28;20616;-31
2022/11/12 02:53:22;;;;;;;6.35;5.38;;;19.30;77.00;;;;;;10513720;28;20051;-29
2022/11/12 02:58:24;;;;;;;8.02;6.00;;;19.30;77.00;;;;;;10522835;28;20129;-29
2022/11/12 03:03:26;;;;;;;8.15;5.93;;;19.30;76.80;;;;;;10532003;28;20097;-26
2022/11/12 03:08:29;;;;;;;10.70;5.75;;;19.30;76.80;;;;;;10531693;28;20071;-31
2022/11/12 03:13:31;;;;;;;8.27;6.78;;;19.30;76.80;;;;;;10524588;28;20466;-30
2022/11/12 03:18:33;;;;;;;8.15;6.32;;;19.30;76.80;;;;;;10514998;28;20107;-28
2022/11/12 03:23:36;;;;;;;9.02;6.78;;;19.30;76.80;;;;;;10526452;28;20117;-27
2022/11/12 03:28:37;;;;;;;10.57;7.05;;;19.30;76.90;;;;;;10518377;28;20048;-29
2022/11/12 03:33:39;;;;;;;8.30;6.20;;;19.30;76.70;;;;;;10528738;28;20489;-25
2022/11/12 03:38:42;;;;;;;11.10;6.68;;;19.30;76.60;;;;;;10536495;28;20083;-27
2022/11/12 03:43:44;;;;;;;8.73;6.75;;;19.30;76.60;;;;;;10521083;28;20529;-30
2022/11/12 03:48:46;;;;;;;8.13;6.97;;;19.30;76.70;;;;;;10527010;28;20051;-34
2022/11/12 03:53:50;;;;;;;12.73;6.80;;;19.30;76.60;;;;;;10523622;28;20070;-32
2022/11/12 03:58:51;;;;;;;9.43;6.38;;;19.30;76.90;;;;;;10532195;28;20056;-32
2022/11/12 04:03:53;;;;;;;10.48;7.50;;;19.20;76.70;;;;;;10527780;28;20044;-29
2022/11/12 04:08:56;;;;;;;10.07;7.17;;;19.20;77.00;;;;;;10518856;28;20739;-32
2022/11/12 04:13:59;;;;;;;10.05;6.85;;;19.20;76.90;;;;;;10530372;28;20493;-29
2022/11/12 04:35:07;;;;;;;11.25;7.07;;;19.20;77.00;;;;;;10528991;28;20048;-31
2022/11/12 04:45:27;;;;;;;10.70;6.72;;;19.20;77.20;;;;;;10530973;28;20147;-29
2022/11/12 04:50:29;;;;;;;9.55;7.00;;;19.20;77.20;;;;;;10522906;28;20040;-29
2022/11/12 04:55:33;;;;;;;10.13;6.47;;;19.20;77.10;;;;;;10518963;28;20528;-31
2022/11/12 05:00:35;;;;;;;8.85;5.75;;;19.10;77.10;;;;;;10527311;28;20459;-29
2022/11/12 05:05:37;;;;;;;8.13;6.18;;;19.10;77.40;;;;;;10529455;28;20048;-29
2022/11/12 05:10:40;;;;;;;8.43;6.22;;;19.10;77.20;;;;;;10515454;28;20546;-28
2022/11/12 05:15:43;;;;;;;9.48;6.20;;;19.20;77.00;;;;;;10542658;28;20155;-29
2022/11/12 05:20:45;;;;;;;7.78;5.47;;;19.10;77.00;;;;;;10530158;28;20047;-27
2022/11/12 05:25:48;;;;;;;7.38;5.55;;;19.10;77.10;;;;;;10532910;28;20121;-31
2022/11/12 05:30:50;;;;;;;10.07;5.38;;;19.20;77.00;;;;;;10541919;28;20040;-30
2022/11/12 05:35:52;;;;;;;7.18;5.57;;;19.10;76.80;;;;;;10544648;28;20056;-34
2022/11/12 05:40:55;;;;;;;8.35;5.30;;;19.10;76.90;;;;;;10518358;28;20436;-28
2022/11/12 05:45:57;;;;;;;6.88;4.85;;;19.10;76.90;;;;;;10528965;28;20048;-32
2022/11/12 05:50:59;;;;;;;7.68;4.75;;;19.10;76.80;;;;;;10531340;28;20425;-28
2022/11/12 05:56:03;;;;;;;6.90;4.90;;;19.10;76.80;;;;;;10501102;28;20487;-28
2022/11/12 06:01:05;;;;;;;5.82;4.13;;;19.10;76.70;;;;;;10525510;28;20048;-28
2022/11/12 06:06:07;;;;;;;6.20;4.88;;;19.10;76.70;;;;;;10518573;28;20101;-29
2022/11/12 06:11:10;;;;;;;6.65;4.32;;;19.10;76.90;;;;;;10520806;28;20389;-36
2022/11/12 06:16:12;;;;;;;5.97;4.30;;;19.10;76.10;;;;;;10530897;28;20114;-33
2022/11/12 06:21:21;;;;;;;5.22;3.78;;;19.20;75.80;;;;;;10512405;28;20141;-31
2022/11/12 06:26:26;;;;;;;5.10;4.32;;;19.20;75.70;;;;;;10528316;28;20043;-30
2022/11/12 06:31:28;;;;;;;5.00;3.97;;;19.30;75.60;;;;;;10524196;28;20402;-30
2022/11/12 06:36:30;;;;;;;5.85;4.30;;;19.20;75.50;;;;;;10524603;28;20090;-30
2022/11/12 06:41:33;;;;;;;5.50;4.05;;;19.30;75.80;;;;;;10515603;28;20094;-27
2022/11/12 06:46:34;;;;;;;5.20;4.28;;;19.30;75.70;;;;;;10523151;28;20072;-26
2022/11/12 06:51:38;;;;;;;6.55;3.90;;;19.30;75.90;;;;;;10515060;28;20124;-31
2022/11/12 06:56:41;;;;;;;7.30;4.00;;;19.30;76.00;;;;;;10524897;28;20135;-30
2022/11/12 07:15:28;;;;;;;8.20;3.88;;;19.30;75.80;;;;;;10491362;27;1443199;-28
2022/11/12 07:20:30;;;;;;;10.43;4.38;;;19.30;76.40;;;;;;10525129;28;20430;-27
2022/11/12 07:25:32;;;;;;;7.90;4.65;;;19.30;76.20;;;;;;10523690;28;20067;-27
2022/11/12 07:30:36;;;;;;;7.05;3.92;;;19.30;76.30;;;;;;10537270;28;20075;-29
2022/11/12 07:35:38;;;;;;;9.13;4.68;;;19.30;76.10;;;;;;10521766;28;20648;-29
2022/11/12 07:40:39;;;;;;;9.45;3.92;;;19.30;76.00;;;;;;10524741;28;20128;-28
2022/11/12 07:45:43;;;;;;;11.20;4.75;;;19.30;76.20;;;;;;10524806;28;20072;-31
2022/11/12 07:50:45;;;;;;;10.63;4.65;;;19.30;75.70;;;;;;10518050;28;20141;-31
2022/11/12 07:55:54;;;;;;;9.73;4.28;;;19.30;75.50;;;;;;10519843;28;20048;-29
2022/11/12 08:00:58;;;;;;;11.10;4.15;;;19.30;75.50;;;;;;10519997;28;20476;-28
2022/11/12 08:06:00;;;;;;;11.88;4.55;;;19.40;75.30;;;;;;10521436;28;20036;-32
2022/11/12 08:11:02;;;;;;;10.18;4.50;;;19.40;75.10;;;;;;10531038;28;20052;-28
2022/11/12 08:16:06;;;;;;;10.57;4.53;;;19.30;75.30;;;;;;10521082;28;20728;-28
2022/11/12 08:21:12;;;;;;;10.63;5.10;;;19.30;75.10;;;;;;10527682;28;20497;-29
2022/11/12 08:26:16;;;;;;;9.25;4.07;;;19.30;75.20;;;;;;10496413;28;20064;-31
2022/11/12 08:31:22;;;;;;;6.20;3.95;;;19.40;75.10;;;;;;10493423;28;20484;-29
2022/11/12 08:36:24;;;;;;;9.40;4.00;;;19.30;75.30;;;;;;10496395;28;20045;-29
2022/11/12 08:41:26;;;;;;;5.57;3.85;;;19.30;75.10;;;;;;10498057;28;20509;-27
2022/11/12 08:46:29;;;;;;;8.95;3.97;;;19.30;75.30;;;;;;10492001;28;20056;-29
2022/11/12 08:51:31;;;;;;;6.75;3.95;;;19.30;75.30;;;;;;10492243;28;20518;-29
2022/11/12 08:56:34;;;;;;;7.85;4.70;;;19.30;75.20;;;;;;10493478;28;20051;-29
2022/11/12 09:01:37;;;;;;;11.77;4.88;;;19.30;75.20;;;;;;10490925;28;20063;-34
2022/11/12 09:06:39;;;;;;;12.38;4.63;;;19.30;75.50;;;;;;10489731;28;20036;-31
2022/11/12 09:11:41;;;;;;;11.43;3.92;;;19.20;75.60;;;;;;10492632;28;20056;-29
2022/11/12 09:16:44;;;;;;;8.82;3.90;;;19.30;75.60;;;;;;10493978;28;20048;-32
2022/11/12 09:21:46;;;;;;;5.38;3.65;;;19.30;76.20;;;;;;10490659;28;20139;-30
2022/11/12 09:26:52;;;;;;;6.22;3.35;;;19.40;76.80;;;;;;10487902;28;20596;-31
2022/11/12 09:31:55;;;;;;;6.15;3.55;;;19.40;77.00;;;;;;10494518;28;20447;-28
2022/11/12 09:36:57;;;;;;;7.93;3.42;;;19.40;77.20;;;;;;10494379;28;20562;-31
2022/11/12 09:41:59;;;;;;;11.13;3.10;;;19.50;76.80;;;;;;10491139;28;20040;-28
2022/11/12 09:47:07;;;;;;;5.53;3.05;;;19.50;77.10;;;;;;10494702;28;20473;-28
2022/11/12 09:52:16;;;;;;;7.15;2.95;;;19.50;76.90;;;;;;10490696;28;20059;-29
2022/11/12 09:57:18;;;;;;;7.70;2.72;;;19.60;77.10;;;;;;10489203;28;20075;-31
2022/11/12 10:02:31;;;;;;;11.52;2.97;;;19.60;77.10;;;;;;10493121;28;20131;-33
2022/11/12 10:07:46;;;;;;;7.15;2.75;;;19.60;77.50;;;;;;10488393;28;20041;-29
2022/11/12 10:13:04;;;;;;;10.02;2.88;;;19.60;77.40;;;;;;10488352;28;20444;-29
2022/11/12 10:18:13;;;;;;;5.75;2.85;;;19.60;77.50;;;;;;10494054;28;20082;-29
2022/11/12 10:23:19;;;;;;;5.53;2.35;;;19.70;77.40;;;;;;10482865;28;20052;-28
2022/11/12 10:28:27;;;;;;;6.07;2.75;;;19.80;77.20;;;;;;10487664;28;20040;-28
2022/11/12 10:33:31;;;;;;;7.93;3.10;;;19.70;77.60;;;;;;10490144;28;20043;-33
2022/11/12 10:38:35;;;;;;;4.88;2.35;;;19.80;77.50;;;;;;10491681;28;20052;-27
2022/11/12 10:43:38;;;;;;;6.30;2.58;;;19.80;77.60;;;;;;10491074;28;20161;-30
2022/11/12 10:48:52;;;;;;;;;;;19.80;77.70;;;;;;10491067;28;20094;-29
2022/11/12 10:53:54;;;;;;;3.67;2.40;;;19.70;77.90;;;;;;10485711;28;19974;-29
2022/11/12 10:59:11;;;;;;;5.53;2.20;;;19.80;77.70;;;;;;10479052;28;20045;-29
2022/11/12 11:04:28;;;;;;;4.00;2.38;;;19.80;77.40;;;;;;10484835;28;20052;-28
2022/11/12 11:09:30;;;;;;;6.40;2.05;;;19.80;77.60;;;;;;10485615;28;20468;-29
2022/11/12 11:14:33;;;;;;;3.28;1.95;;;19.90;77.40;;;;;;10485492;28;20148;-30
2022/11/12 11:19:39;;;;;;;4.65;2.53;;;19.80;78.00;;;;;;10495937;28;20040;-35
2022/11/12 11:24:53;;;;;;;5.05;3.15;;;19.90;78.00;;;;;;10485980;28;20036;-34
2022/11/12 11:30:04;;;;;;;3.63;2.00;;;19.90;77.90;;;;;;10479826;28;20430;-30
2022/11/12 11:35:19;;;;;;;5.88;2.90;;;20.00;77.60;;;;;;10485579;28;20477;-28
2022/11/12 11:40:29;;;;;;;3.40;2.10;;;20.00;78.00;;;;;;10480272;28;20075;-28
2022/11/12 11:45:45;;;;;;;3.45;2.25;;;19.90;78.20;;;;;;10488138;28;20052;-35
2022/11/12 11:50:56;;;;;;;6.78;3.20;;;19.90;78.40;;;;;;10488352;28;20119;-31
2022/11/12 11:56:02;;;;;;;5.43;3.13;;;20.10;77.70;;;;;;10482825;28;20084;-30
2022/11/12 12:01:11;;;;;;;5.95;3.08;;;20.10;77.10;;;;;;10482010;28;20094;-26
2022/11/12 12:06:23;;;;;;;5.45;3.45;;;20.20;76.70;;;;;;10492794;28;20497;-28
2022/11/12 12:11:32;;;;;;;4.78;3.47;;;20.20;76.30;;;;;;10489620;28;20042;-28
2022/11/12 12:16:47;;;;;;;11.73;3.97;;;20.30;76.10;;;;;;10481609;28;20473;-29
2022/11/12 12:21:51;;;;;;;12.10;3.70;;;20.30;75.90;;;;;;10479740;28;20145;-29
2022/11/12 12:26:56;;;;;;;7.53;3.38;;;20.30;75.60;;;;;;10487547;28;20135;-29
2022/11/12 12:32:02;;;;;;;10.10;3.47;;;20.40;74.90;;;;;;10487412;28;20052;-30
2022/11/12 12:37:12;;;;;;;9.75;3.05;;;20.30;74.90;;;;;;10487146;28;20444;-29
2022/11/12 12:42:18;;;;;;;4.68;2.55;;;20.00;76.10;;;;;;10486793;28;20444;-28
2022/11/12 12:47:21;;;;;;;7.80;3.00;;;20.00;76.80;;;;;;10486784;28;20095;-28
2022/11/12 12:52:24;;;;;;;8.20;3.22;;;20.30;72.10;;;;;;10490357;28;20048;-29
2022/11/12 12:57:30;;;;;;;6.30;3.10;;;20.20;75.50;;;;;;10492449;28;20565;-28
2022/11/12 13:02:38;;;;;;;9.60;2.75;;;20.20;75.40;;;;;;10488535;28;20123;-28
2022/11/12 13:07:44;;;;;;;6.65;2.55;;;20.30;75.30;;;;;;10486389;28;20068;-30
2022/11/12 13:13:03;;;;;;;4.35;2.53;;;20.40;74.40;;;;;;10492488;28;20056;-29
2022/11/12 13:18:09;;;;;;;5.70;2.15;;;20.50;74.00;;;;;;10483344;28;20079;-28
2022/11/12 13:29:21;;;;;;;2.55;1.98;;;20.60;73.60;;;;;;10487321;28;20446;-28
2022/11/12 13:34:31;;;;;;;3.80;2.20;;;20.70;72.80;;;;;;10489729;28;20064;-28
2022/11/12 13:39:37;;;;;;;4.72;2.05;;;20.90;72.30;;;;;;10495138;28;20470;-26
2022/11/12 13:44:39;;;;;;;4.78;2.22;;;20.80;72.40;;;;;;10487758;28;20052;-28
2022/11/12 13:49:42;;;;;;;3.60;1.92;;;20.80;72.00;;;;;;10488407;28;20048;-24
2022/11/12 13:54:45;;;;;;;3.50;1.90;;;20.90;71.70;;;;;;10495143;28;20057;-29
2022/11/12 13:59:47;;;;;;;3.70;2.20;;;20.90;71.60;;;;;;10491844;28;20131;-30
2022/11/12 14:04:50;;;;;;;4.57;2.00;;;20.90;71.80;;;;;;10489689;28;20451;-29
2022/11/12 14:10:06;;;;;;;5.60;2.42;;;21.00;71.60;;;;;;10489015;28;20503;-30
2022/11/12 14:15:23;;;;;;;2.92;1.73;;;21.10;70.90;;;;;;10487634;28;20155;-32
2022/11/12 14:20:29;;;;;;;4.35;1.70;;;21.10;70.70;;;;;;10486407;28;20481;-29
2022/11/12 14:25:32;;;;;;;4.50;2.13;;;21.20;70.80;;;;;;10491564;28;20391;-28
2022/11/12 14:30:42;;;;;;;3.40;1.90;;;21.20;70.40;;;;;;10482677;28;20497;-27
2022/11/12 14:35:44;;;;;;;5.97;1.85;;;21.30;69.70;;;;;;10481408;28;20097;-28
2022/11/12 14:40:51;;;;;;;7.05;1.77;;;21.40;69.60;;;;;;10487961;28;20559;-34
2022/11/12 14:45:55;;;;;;;2.97;1.67;;;21.40;69.30;;;;;;10493636;28;20049;-35
2022/11/12 14:51:02;;;;;;;3.58;1.70;;;21.50;68.80;;;;;;10487079;28;20045;-29
2022/11/12 14:56:09;;;;;;;5.82;1.73;;;21.60;68.30;;;;;;10492955;28;20482;-29
2022/11/12 15:01:22;;;;;;;3.38;1.92;;;21.60;68.00;;;;;;10488006;28;20123;-29
2022/11/12 15:06:29;;;;;;;2.70;2.00;;;21.70;67.70;;;;;;10488450;28;20071;-29
2022/11/12 15:11:36;;;;;;;2.50;1.67;;;21.60;67.60;;;;;;10486694;28;20153;-26
2022/11/12 15:16:43;;;;;;;2.38;1.60;;;21.80;67.40;;;;;;10484619;28;20053;-29
2022/11/12 15:21:46;;;;;;;5.43;2.05;;;21.80;67.40;;;;;;10485045;28;20078;-28
2022/11/12 15:26:50;;;;;;;2.03;1.58;;;21.80;67.60;;;;;;10486772;28;20139;-32
2022/11/12 15:31:54;;;;;;;2.17;1.67;;;21.60;68.00;;;;;;10485445;28;20060;-32
2022/11/12 15:36:58;;;;;;;5.53;2.00;;;21.60;67.80;;;;;;10493489;28;20477;-33
2022/11/12 15:42:04;;;;;;;3.60;1.60;;;21.70;68.20;;;;;;10488741;28;20086;-27
2022/11/12 15:47:08;;;;;;;6.57;2.00;;;21.70;67.50;;;;;;10492431;28;20132;-32
2022/11/12 15:52:10;;;;;;;4.32;2.00;;;21.80;67.80;;;;;;10482667;28;20045;-29
2022/11/12 15:57:16;;;;;;;3.47;1.92;;;21.70;67.80;;;;;;10493316;28;20056;-30
2022/11/12 16:02:18;;;;;;;1.92;1.70;;;21.70;68.00;;;;;;10496705;28;20185;-28
2022/11/12 16:07:20;;;;;;;;;;;21.70;68.30;;;;;;10493376;28;20040;-28
2022/11/12 16:12:24;;;;;;;1.92;1.42;;;21.60;68.30;;;;;;10491116;28;19974;-27
2022/11/12 16:17:26;;;;;;;4.13;1.92;;;21.60;68.70;;;;;;10492836;28;20056;-29
2022/11/12 16:22:28;;;;;;;1.90;1.40;;;21.60;68.90;;;;;;10490502;28;20597;-29
2022/11/12 16:27:31;;;;;;;1.92;1.40;;;21.50;68.80;;;;;;10488673;28;20152;-30
2022/11/12 16:32:33;;;;;;;3.28;1.60;;;21.50;69.70;;;;;;10496029;28;20643;-28
2022/11/12 16:37:37;;;;;;;4.05;1.50;;;21.50;69.40;;;;;;10490963;28;20041;-32
2022/11/12 16:42:44;;;;;;;1.92;1.50;;;21.50;69.70;;;;;;10487794;28;20127;-34
2022/11/12 16:47:47;;;;;;;3.78;1.65;;;21.40;69.70;;;;;;10489301;28;20072;-28
2022/11/12 16:52:51;;;;;;;2.95;1.92;;;21.40;70.00;;;;;;10489843;28;20048;-28
2022/11/12 16:57:54;;;;;;;3.83;1.85;;;21.30;70.10;;;;;;10496509;28;20048;-29
2022/11/12 17:02:56;;;;;;;4.63;1.90;;;21.30;70.10;;;;;;10481917;28;20052;-35
2022/11/12 17:07:58;;;;;;;2.13;1.50;;;21.30;70.50;;;;;;10488627;28;20661;-34
2022/11/12 17:13:01;;;;;;;4.93;1.90;;;21.30;70.60;;;;;;10490710;28;20163;-28
2022/11/12 17:18:03;;;;;;;4.43;1.98;;;21.30;70.70;;;;;;10490071;28;20087;-27
2022/11/12 17:23:05;;;;;;;2.63;2.08;;;21.30;70.80;;;;;;10484263;28;20083;-28
2022/11/12 17:28:08;;;;;;;7.35;2.70;;;21.20;70.90;;;;;;10478124;28;20551;-29
2022/11/12 17:33:10;;;;;;;3.85;2.67;;;21.30;70.70;;;;;;10488620;28;20114;-30
2022/11/12 17:38:12;;;;;;;6.07;2.53;;;21.20;70.80;;;;;;10491822;28;20040;-29
2022/11/12 17:43:15;;;;;;;6.25;3.78;;;21.20;70.70;;;;;;10489281;28;20537;-30
2022/11/12 17:48:18;;;;;;;6.13;2.78;;;21.20;71.00;;;;;;10488889;28;20040;-31
2022/11/12 17:53:20;;;;;;;4.63;3.00;;;21.20;71.00;;;;;;10490936;28;20784;-35
2022/11/12 17:58:23;;;;;;;11.18;3.17;;;21.30;71.20;;;;;;10489888;28;20048;-34
2022/11/12 18:03:27;;;;;;;9.15;4.80;;;21.30;71.60;;;;;;10490532;28;20048;-31
2022/11/12 18:08:29;;;;;;;10.70;4.57;;;21.20;71.80;;;;;;10497836;28;20053;-31
2022/11/12 18:13:32;;;;;;;9.73;4.35;;;21.20;72.00;;;;;;10492697;28;20105;-27
2022/11/12 18:18:34;;;;;;;9.63;4.50;;;21.20;72.30;;;;;;10495856;28;20133;-31
2022/11/12 18:23:37;;;;;;;13.68;5.20;;;21.20;72.20;;;;;;10490437;28;20538;-31
2022/11/12 18:28:40;;;;;;;11.55;6.22;;;21.20;72.20;;;;;;10488299;28;20050;-28
2022/11/12 18:33:42;;;;;;;9.82;5.88;;;21.20;72.00;;;;;;10488952;28;20080;-29
2022/11/12 18:38:47;;;;;;;21.40;6.85;;;21.20;71.90;;;;;;10489603;28;20098;-28
2022/11/12 18:43:50;;;;;;;16.75;7.00;;;21.20;71.70;;;;;;10493752;28;20052;-28
2022/11/12 18:48:52;;;;;;;13.80;7.10;;;21.20;71.90;;;;;;10488496;28;20076;-32
2022/11/12 18:53:54;;;;;;;14.07;6.93;;;21.20;71.80;;;;;;10488120;28;20109;-30
2022/11/12 18:58:57;;;;;;;13.10;7.03;;;21.20;71.70;;;;;;10488050;28;20056;-30
2022/11/12 19:03:59;;;;;;;17.15;7.00;;;21.10;71.70;;;;;;10487993;28;20109;-31
2022/11/12 19:09:02;;;;;;;11.80;7.03;;;21.10;71.80;;;;;;10490377;28;20052;-33
2022/11/12 19:14:05;;;;;;;14.57;7.00;;;21.10;71.60;;;;;;10470487;28;20434;-29
2022/11/12 19:19:08;;;;;;;19.25;7.43;;;21.10;71.70;;;;;;10478486;28;20048;-29
2022/11/12 19:24:10;;;;;;;15.15;7.38;;;21.10;71.50;;;;;;10477464;28;20048;-29
2022/11/12 19:29:13;;;;;;;10.80;6.07;;;21.10;71.30;;;;;;10487020;28;20482;-30
2022/11/12 19:34:15;;;;;;;16.05;7.18;;;21.10;71.20;;;;;;10492503;28;20088;-29
2022/11/12 19:39:17;;;;;;;9.20;5.80;;;21.00;71.20;;;;;;10487758;28;20048;-31
2022/11/12 19:44:20;;;;;;;14.27;6.80;;;21.10;70.80;;;;;;10491514;28;20047;-28
2022/11/12 19:49:22;;;;;;;9.82;6.35;;;21.10;70.70;;;;;;10479668;28;20346;-27
2022/11/12 19:54:24;;;;;;;10.43;5.65;;;21.00;70.80;;;;;;10488378;28;20133;-30
2022/11/12 19:59:27;;;;;;;15.82;7.20;;;21.00;71.10;;;;;;10487027;28;20553;-29
2022/11/12 20:04:29;;;;;;;11.10;6.40;;;21.00;71.40;;;;;;10488835;28;20090;-31
2022/11/12 20:09:31;;;;;;;10.00;5.97;;;21.00;71.50;;;;;;10486569;28;20088;-30
2022/11/12 20:14:34;;;;;;;11.80;5.57;;;21.00;71.50;;;;;;10485257;28;20059;-33
2022/11/12 20:19:36;;;;;;;9.85;5.78;;;21.00;71.00;;;;;;10487137;28;20085;-28
2022/11/12 20:24:38;;;;;;;9.20;5.40;;;20.90;71.00;;;;;;10489007;28;20504;-33
2022/11/12 20:29:42;;;;;;;9.55;5.90;;;20.90;71.00;;;;;;10486942;28;20076;-30
2022/11/12 20:34:43;;;;;;;10.82;5.75;;;20.90;70.90;;;;;;10491897;28;20123;-32
2022/11/12 20:39:45;;;;;;;8.90;5.63;;;20.80;71.20;;;;;;10482277;28;20530;-29
2022/11/12 20:44:48;;;;;;;9.02;5.53;;;20.80;71.40;;;;;;10490530;28;20098;-31
2022/11/12 20:49:50;;;;;;;10.18;6.13;;;20.80;71.60;;;;;;10489938;28;20079;-29
2022/11/12 20:54:52;;;;;;;13.63;5.97;;;20.70;71.80;;;;;;10492283;28;20097;-30
2022/11/12 20:59:56;;;;;;;9.48;5.20;;;20.70;72.00;;;;;;10486199;28;20044;-31
2022/11/12 21:04:57;;;;;;;12.40;6.05;;;20.70;71.90;;;;;;10487201;28;20045;-29
2022/11/12 21:09:59;;;;;;;8.98;5.43;;;20.80;71.80;;;;;;10489160;28;20075;-29
2022/11/12 21:15:03;;;;;;;8.50;5.70;;;20.80;71.90;;;;;;10495100;28;20101;-28
2022/11/12 21:20:05;;;;;;;13.48;6.00;;;20.70;72.10;;;;;;10489184;28;20079;-28
2022/11/12 21:25:08;;;;;;;13.35;6.55;;;20.70;72.10;;;;;;10483757;28;20102;-30
2022/11/12 21:30:12;;;;;;;17.65;6.75;;;20.70;72.30;;;;;;10490432;28;20043;-29
2022/11/12 21:35:14;;;;;;;12.23;5.82;;;20.70;72.40;;;;;;10486217;28;20059;-29
2022/11/12 21:40:16;;;;;;;9.63;5.78;;;20.60;72.40;;;;;;10494144;28;20094;-29
2022/11/12 21:45:20;;;;;;;13.65;5.95;;;20.60;72.60;;;;;;10496336;28;20072;-29
2022/11/12 21:50:22;;;;;;;9.70;5.07;;;20.60;72.80;;;;;;10491638;28;20613;-27
2022/11/12 21:55:24;;;;;;;8.68;4.78;;;20.50;72.90;;;;;;10489772;28;20095;-30
2022/11/12 22:00:28;;;;;;;7.03;4.85;;;20.50;73.70;;;;;;10483725;28;20447;-28
2022/11/12 22:05:30;;;;;;;8.23;4.88;;;20.50;73.30;;;;;;10488155;28;20476;-29
2022/11/12 22:10:32;;;;;;;11.05;6.82;;;20.40;73.90;;;;;;10487424;28;20127;-30
2022/11/12 22:15:35;;;;;;;10.90;5.18;;;20.40;73.30;;;;;;10487997;28;20098;-30
2022/11/12 22:20:37;;;;;;;9.82;5.57;;;20.40;73.30;;;;;;10489180;28;20049;-33
2022/11/12 22:25:39;;;;;;;9.20;4.93;;;20.30;73.30;;;;;;10493123;28;20049;-36
2022/11/12 22:30:42;;;;;;;10.45;5.05;;;20.40;73.40;;;;;;10484820;28;20636;-25
2022/11/12 22:35:44;;;;;;;11.30;5.68;;;20.30;73.30;;;;;;10481082;28;20110;-30
2022/11/12 22:40:46;;;;;;;11.65;5.40;;;20.30;73.10;;;;;;10490859;28;20051;-30
2022/11/12 22:45:49;;;;;;;8.30;4.93;;;20.30;73.20;;;;;;10469737;28;20090;-29
2022/11/12 22:50:51;;;;;;;6.65;4.93;;;20.30;73.20;;;;;;10490419;28;20127;-33
2022/11/12 22:55:53;;;;;;;7.13;5.03;;;20.20;73.10;;;;;;10487487;28;20753;-33
2022/11/12 23:00:56;;;;;;;10.05;5.88;;;20.30;73.20;;;;;;10489222;28;20153;-28
2022/11/12 23:05:59;;;;;;;8.68;5.15;;;20.20;73.00;;;;;;10490956;28;20052;-27
2022/11/12 23:11:02;;;;;;;8.40;5.18;;;20.20;73.20;;;;;;10489222;28;20075;-28
2022/11/12 23:16:08;;;;;;;8.65;5.15;;;20.20;73.30;;;;;;10478042;28;20063;-28
2022/11/12 23:21:12;;;;;;;7.60;4.70;;;20.20;73.10;;;;;;10485576;28;20044;-28
2022/11/12 23:26:17;;;;;;;7.20;4.78;;;20.10;73.40;;;;;;10488800;28;20041;-29
2022/11/12 23:31:22;;;;;;;7.50;4.82;;;20.10;73.30;;;;;;10481857;28;20075;-31
2022/11/12 23:36:25;;;;;;;8.30;4.53;;;20.10;73.40;;;;;;10494018;28;20041;-29
2022/11/12 23:41:27;;;;;;;7.93;5.43;;;20.00;73.30;;;;;;10483548;28;20459;-27
2022/11/12 23:46:30;;;;;;;8.48;5.05;;;20.00;73.50;;;;;;10493366;28;20040;-28
2022/11/12 23:51:32;;;;;;;7.75;4.88;;;20.00;73.40;;;;;;10489068;28;20090;-33
2022/11/12 23:56:34;;;;;;;9.23;5.05;;;20.00;73.40;;;;;;10494981;28;20139;-29
